• Join FlightAware (Why Join?)
  • Login
  • US Flag 
07:44PM EDT


 

Airport Tracker/Info


-or-


 

Live Flight TrackerFlight Track Log ✈ SWA803 ✈ 09-May-2013 ✈ KLAS - KTPA

Flight Track Log - Related Links

Times and Time Zones

All times are in EDT time to prevent confusion due to time zone crossing. See the SWA803 flight status page for this flight to view local times or setup timezone preferences in your user account.

Time Position Orientation Groundspeed Altitude Reporting Facility
EDT Latitude Longitude Course Direction KTS MPH feet Rate Location/Type
06:45PM 36.0747 -115.1819 271° West 181 208 3,400  Level Los Angeles Center
06:45PM 36.0753 -115.2244 271° West 203 234 4,400 1,620 Climbing Los Angeles Center
06:47PM 36.0214 -115.2767 218° Southwest 245 282 6,500 1,800 Climbing Los Angeles Center
06:48PM 35.9503 -115.2947 192° South 293 337 8,100 1,920 Climbing Los Angeles Center
06:48PM 35.9442 -115.2906 151° Southeast 272 313 8,500 2,940 Climbing Los Angeles Center
06:48PM 35.8953 -115.2408 141° Southeast 293 337 10,800 2,700 Climbing Los Angeles Center
06:49PM 35.8961 -115.2211 87° East 290 334 11,300 2,160 Climbing Los Angeles Center
06:49PM 35.8981 -115.1339 88° East 324 373 13,000 2,700 Climbing Los Angeles Center
06:50PM 35.8992 -115.0903 88° East 319 367 14,100 2,220 Climbing Los Angeles Center
06:51PM 35.9017 -114.9753 88° East 331 381 16,200 1,920 Climbing Los Angeles Center
06:53PM 35.9078 -114.7217 88° East 370 426 20,100 1,740 Climbing Los Angeles Center
06:54PM 35.9106 -114.5853 89° East 389 448 21,700 1,860 Climbing Los Angeles Center
06:55PM 35.9144 -114.4175 88° East 404 465 24,000 1,800 Climbing Los Angeles Center
06:56PM 35.9164 -114.2761 89° East 412 474 25,500 1,260 Climbing Los Angeles Center
06:57PM 35.9200 -114.1053 88° East 417 480 26,900 1,140 Climbing Los Angeles Center
06:58PM 35.9228 -113.9597 89° East 423 487 28,200 1,200 Climbing Los Angeles Center
07:00PM 35.9111 -113.8139 96° East 430 495 29,700 1,440 Climbing Los Angeles Center
07:01PM 35.8825 -113.6453 102° East 423 487 31,500 1,620 Climbing Los Angeles Center
07:02PM 35.8581 -113.4861 101° East 413 475 33,100 960 Climbing Los Angeles Center
07:03PM 35.8358 -113.3500 101° East 409 471 33,600 600 Climbing Los Angeles Center
07:04PM 35.8139 -113.2100 101° East 412 474 34,400 660 Climbing Los Angeles Center
07:05PM 35.7900 -113.0694 102° East 418 481 35,000 240 Climbing Los Angeles Center
07:06PM 35.7661 -112.9269 102° East 424 488 35,000  Level Los Angeles Center
07:07PM 35.7386 -112.7542 101° East 426 490 35,000  Level Los Angeles Center
07:08PM 35.7144 -112.6106 102° East 428 493 35,000  Level Los Angeles Center
07:09PM 35.6914 -112.4656 101° East 430 495 35,000  Level Los Angeles Center
07:10PM 35.6594 -112.2906 103° East 435 501 35,000  Level Los Angeles Center
07:11PM 35.6347 -112.1436 102° East 439 505 35,000  Level Los Angeles Center
07:12PM 35.6083 -111.9978 103° East 439 505 35,000  Level Los Angeles Center
07:12PM 35.5983 -111.9381 102° East 444 511 35,000  Level Albuquerque Center
07:14PM 35.5886 -111.7886 95° East 447 514 35,000  Level Albuquerque Center
07:15PM 35.5844 -111.6378 92° East 444 511 35,000  Level Albuquerque Center
07:16PM 35.5800 -111.4881 92° East 443 510 35,000  Level Albuquerque Center
07:17PM 35.5753 -111.3172 92° East 447 514 35,000  Level Albuquerque Center
07:18PM 35.5686 -111.1483 93° East 445 512 35,000  Level Albuquerque Center
07:19PM 35.5658 -111.0036 91° East 444 511 35,000  Level Albuquerque Center
07:20PM 35.5600 -110.8567 93° East 447 514 35,000  Level Albuquerque Center
07:21PM 35.5533 -110.6842 93° East 452 520 35,000  Level Albuquerque Center
07:22PM 35.5478 -110.5369 93° East 452 520 35,000  Level Albuquerque Center
07:23PM 35.5422 -110.3650 92° East 453 521 35,000  Level Albuquerque Center
07:24PM 35.5361 -110.2169 93° East 454 522 35,000  Level Albuquerque Center
07:25PM 35.5300 -110.0428 92° East 457 526 35,000  Level Albuquerque Center
07:26PM 35.5233 -109.8944 93° East 456 525 35,000  Level Albuquerque Center
07:27PM 35.5169 -109.7456 93° East 457 526 35,000  Level Albuquerque Center
07:28PM 35.5092 -109.5714 93° East 458 527 35,000  Level Albuquerque Center
07:29PM 35.5033 -109.4228 93° East 459 528 35,000  Level Albuquerque Center
07:30PM 35.4950 -109.2489 93° East 460 529 35,000  Level Albuquerque Center
07:31PM 35.4783 -109.1017 98° East 459 528 35,000  Level Albuquerque Center
07:32PM 35.4564 -108.9311 99° East 457 526 35,000  Level Albuquerque Center
07:33PM 35.4269 -108.7867 104° East 458 527 35,000  Level Albuquerque Center
07:34PM 35.3831 -108.6211 108° East 460 529 35,000  Level Albuquerque Center
07:35PM 35.3467 -108.4772 107° East 461 531 35,000  Level Albuquerque Center
07:36PM 35.3117 -108.3322 106° East 464 534 35,000  Level Albuquerque Center
07:37PM 35.2583 -108.1672 112° Southeast 468 539 35,000  Level Albuquerque Center
07:38PM 35.2019 -108.0333 117° Southeast 464 534 35,000  Level Albuquerque Center
07:39PM 35.1417 -107.8717 114° Southeast 468 539 35,000  Level Albuquerque Center
07:40PM 35.0889 -107.7419 116° Southeast 469 540 35,000  Level Albuquerque Center
07:41PM 35.0325 -107.5989 116° Southeast 470 541 35,000  Level Albuquerque Center
07:42PM 34.9781 -107.4561 115° Southeast 467 537 35,000  Level Albuquerque Center
07:43PM 34.9233 -107.3136 115° Southeast 468 539 35,000  Level Albuquerque Center
07:44PM 34.8731 -107.1317 109° East 478 550 35,000  Level Albuquerque Center
07:45PM 34.8603 -106.9789 96° East 474 545 35,000  Level Albuquerque Center
07:46PM 34.8444 -106.8017 96° East 471 542 35,000  Level Albuquerque Center
07:47PM 34.8331 -106.6600 96° East 482 555 35,000  Level Albuquerque Center
07:48PM 34.8214 -106.5000 95° East 480 552 35,000  Level Albuquerque Center
07:49PM 34.8075 -106.3067 95° East 481 554 35,000  Level Albuquerque Center
07:50PM 34.7939 -106.1422 96° East 483 556 35,000  Level Albuquerque Center
07:51PM 34.7806 -105.9789 96° East 482 555 35,000  Level Albuquerque Center
07:52PM 34.7686 -105.8150 95° East 484 557 35,000  Level Albuquerque Center
07:53PM 34.7550 -105.6517 96° East 483 556 35,000  Level Albuquerque Center
07:55PM 34.7414 -105.4872 96° East 485 558 35,000  Level Albuquerque Center
07:56PM 34.7286 -105.3225 95° East 486 559 35,000  Level Albuquerque Center
07:57PM 34.7150 -105.1586 96° East 485 558 35,000  Level Albuquerque Center
07:58PM 34.7006 -104.9939 96° East 487 560 35,000  Level Albuquerque Center
07:59PM 34.6825 -104.8017 96° East 489 563 35,000  Level Albuquerque Center
08:00PM 34.6650 -104.6397 97° East 484 557 35,000  Level Albuquerque Center
08:01PM 34.6247 -104.4881 108° East 481 554 35,000  Level Albuquerque Center
08:02PM 34.5856 -104.3339 107° East 477 549 35,000  Level Albuquerque Center
08:03PM 34.5447 -104.1800 108° East 478 550 35,000  Level Albuquerque Center
08:04PM 34.5047 -104.0242 107° East 481 554 35,000  Level Albuquerque Center
08:05PM 34.4650 -103.8683 107° East 481 554 35,000  Level Albuquerque Center
08:06PM 34.4242 -103.7139 108° East 481 554 35,000  Level Albuquerque Center
08:07PM 34.3758 -103.5325 108° East 481 554 35,000  Level Albuquerque Center
08:08PM 34.3344 -103.3778 108° East 482 555 35,000  Level Albuquerque Center
08:09PM 34.2928 -103.2228 108° East 481 554 35,000  Level Albuquerque Center
08:10PM 34.2503 -103.0661 108° East 484 557 35,000  Level Albuquerque Center
08:11PM 34.2108 -102.9239 109° East 487 560 35,000  Level Albuquerque Center
08:12PM 34.1664 -102.7719 109° East 484 557 35,000  Level Albuquerque Center
08:13PM 34.1108 -102.6231 114° Southeast 487 560 35,000  Level Albuquerque Center
08:14PM 34.0467 -102.4481 114° Southeast 479 551 35,000  Level Albuquerque Center
08:15PM 33.9928 -102.3036 114° Southeast 475 547 35,000  Level Albuquerque Center
08:16PM 33.9639 -102.2289 115° Southeast 473 544 35,000  Level Fort Worth Center
08:17PM 33.9058 -102.1031 119° Southeast 473 544 35,000  Level Fort Worth Center
08:18PM 33.8406 -101.9544 118° Southeast 473 544 35,000  Level Fort Worth Center
08:19PM 33.7725 -101.8111 120° Southeast 473 544 35,000  Level Fort Worth Center
08:20PM 33.7161 -101.6908 119° Southeast 471 542 35,000  Level Fort Worth Center
08:21PM 33.6422 -101.5350 120° Southeast 481 554 35,000  Level Fort Worth Center
08:22PM 33.5814 -101.4150 121° Southeast 476 548 35,000  Level Fort Worth Center
08:23PM 33.5150 -101.2650 118° Southeast 470 541 35,000  Level Fort Worth Center
08:24PM 33.4733 -101.1314 110° East 470 541 35,000  Level Fort Worth Center
08:25PM 33.4253 -100.9875 112° Southeast 470 541 35,000  Level Fort Worth Center
08:26PM 33.3814 -100.8389 109° East 470 541 35,000  Level Fort Worth Center
08:27PM 33.3414 -100.6906 108° East 470 541 35,000  Level Fort Worth Center
08:28PM 33.2994 -100.5400 108° East 470 541 35,000 300 Level Fort Worth Center
08:29PM 33.2572 -100.3919 109° East 470 541 35,700 780 Climbing Fort Worth Center
08:30PM 33.2167 -100.2442 108° East 465 535 36,600 600 Climbing Fort Worth Center
08:31PM 33.1783 -100.0964 107° East 465 535 37,000 180 Climbing Fort Worth Center
08:32PM 33.1375 -99.9489 108° East 470 541 37,000  Level Fort Worth Center
08:33PM 33.0925 -99.7914 109° East 470 541 37,000  Level Fort Worth Center
08:34PM 33.0494 -99.6364 108° East 475 547 37,000  Level Fort Worth Center
08:35PM 33.0042 -99.4842 109° East 481 554 37,000  Level Fort Worth Center
08:36PM 32.9567 -99.3147 108° East 487 560 37,000  Level Fort Worth Center
08:37PM 32.9108 -99.1606 109° East 487 560 37,000  Level Fort Worth Center
08:38PM 32.8650 -99.0061 109° East 487 560 37,000  Level Fort Worth Center
08:39PM 32.8231 -98.8547 108° East 487 560 37,000  Level Fort Worth Center
08:40PM 32.7744 -98.6983 110° East 487 560 37,000  Level Fort Worth Center
08:41PM 32.7300 -98.5444 109° East 492 566 37,000  Level Fort Worth Center
08:42PM 32.6894 -98.4083 109° East 486 559 37,000  Level Fort Worth Center
08:43PM 32.6386 -98.2400 110° East 492 566 37,000  Level Fort Worth Center
08:44PM 32.5975 -98.1039 110° East 492 566 37,000  Level Fort Worth Center
08:45PM 32.5483 -97.9333 109° East 492 566 37,000  Level Fort Worth Center
08:46PM 32.5072 -97.7953 109° East 492 566 37,000  Level Fort Worth Center
08:47PM 32.4553 -97.6300 110° East 492 566 37,000  Level Fort Worth Center
08:48PM 32.4094 -97.4772 110° East 492 566 37,000  Level Fort Worth Center
08:49PM 32.3658 -97.3272 109° East 492 566 37,000  Level Fort Worth Center
08:50PM 32.3153 -97.1725 111° Southeast 492 566 37,000  Level Fort Worth Center
08:51PM 32.2711 -97.0228 109° East 492 566 37,000  Level Fort Worth Center
08:52PM 32.2206 -96.8706 111° Southeast 492 566 37,000  Level Fort Worth Center
08:53PM 32.1781 -96.7164 108° East 492 566 37,000  Level Fort Worth Center
08:54PM 32.1417 -96.5569 105° East 487 560 37,000  Level Fort Worth Center
08:55PM 32.1069 -96.4053 105° East 478 550 37,000  Level Fort Worth Center
08:56PM 32.0847 -96.2486 99° East 478 550 37,000  Level Fort Worth Center
08:57PM 32.0603 -96.0919 100° East 484 557 37,000  Level Fort Worth Center
08:58PM 32.0400 -95.9478 99° East 484 557 37,000  Level Fort Worth Center
08:59PM 32.0172 -95.7961 100° East 484 557 37,000  Level Fort Worth Center
09:00PM 31.9942 -95.6400 100° East 484 557 37,000  Level Fort Worth Center
09:01PM 31.9753 -95.4836 98° East 484 557 37,000  Level Fort Worth Center
09:02PM 31.9561 -95.3322 98° East 484 557 37,000  Level Fort Worth Center
09:03PM 31.9367 -95.1661 98° East 474 545 37,000  Level Fort Worth Center
09:04PM 31.9253 -95.0122 95° East 469 540 37,000  Level Fort Worth Center
09:05PM 31.9100 -94.8608 97° East 469 540 37,000  Level Fort Worth Center
09:06PM 31.8961 -94.7047 96° East 464 534 37,000  Level Fort Worth Center
09:07PM 31.9239 -94.5472 78° East 464 534 37,000  Level Fort Worth Center
09:08PM 31.9808 -94.3936 66° East 487 560 37,000  Level Fort Worth Center
09:09PM 32.0419 -94.2372 65° Northeast 493 567 37,000  Level Fort Worth Center
09:10PM 32.0983 -94.0856 66° East 498 573 37,000  Level Fort Worth Center
09:11PM 32.1506 -93.9267 69° East 510 587 37,000  Level Fort Worth Center
09:12PM 32.1250 -93.7633 100° East 494 568 37,000  Level Fort Worth Center
09:14PM 32.0097 -93.3825 110° East 508 585 37,000  Level Houston Center
09:15PM 31.9814 -93.2178 101° East 521 600 37,000  Level Houston Center
09:16PM 31.9742 -93.0442 93° East 530 610 37,000  Level Houston Center
09:17PM 31.9206 -92.8872 112° Southeast 509 586 37,000  Level Houston Center
09:18PM 31.8339 -92.7639 130° Southeast 490 564 37,000  Level Houston Center
09:19PM 31.7469 -92.6394 129° Southeast 491 565 37,000  Level Houston Center
09:20PM 31.6606 -92.5142 129° Southeast 493 567 37,000  Level Houston Center
09:21PM 31.5731 -92.3883 129° Southeast 496 571 37,000  Level Houston Center
09:22PM 31.4675 -92.2392 130° Southeast 497 572 37,000  Level Houston Center
09:23PM 31.3703 -92.1344 137° Southeast 477 549 37,000  Level Houston Center
09:24PM 31.2661 -92.0300 139° Southeast 478 550 37,000  Level Houston Center
09:25PM 31.1658 -91.9267 139° Southeast 478 550 37,000  Level Houston Center
09:26PM 31.0725 -91.8144 134° Southeast 484 557 37,000  Level Houston Center
09:27PM 30.9908 -91.6883 127° Southeast 488 562 37,000  Level Houston Center
09:28PM 30.9075 -91.5622 128° Southeast 490 564 37,000  Level Houston Center
09:29PM 30.8250 -91.4364 127° Southeast 489 563 37,000  Level Houston Center
09:30PM 30.7311 -91.2981 128° Southeast 486 559 37,000  Level Houston Center
09:32PM 30.6494 -91.1756 128° Southeast 482 555 37,000  Level Houston Center
09:33PM 30.5664 -91.0528 128° Southeast 484 557 37,000  Level Houston Center
09:34PM 30.4831 -90.9292 128° Southeast 487 560 37,000  Level Houston Center
09:35PM 30.3817 -90.7797 128° Southeast 494 568 37,000  Level Houston Center
09:36PM 30.2975 -90.6553 128° Southeast 492 566 37,000  Level Houston Center
09:37PM 30.2281 -90.5172 120° Southeast 499 574 37,000  Level Houston Center
09:38PM 30.1608 -90.3778 119° Southeast 500 575 37,000  Level Houston Center
09:39PM 30.0936 -90.2383 119° Southeast 501 577 37,000  Level Houston Center
09:40PM 30.0261 -90.1000 119° Southeast 501 577 37,000  Level Houston Center
09:41PM 29.9450 -89.9328 119° Southeast 503 579 37,000  Level Houston Center
09:42PM 29.8767 -89.7925 119° Southeast 506 582 37,000  Level Houston Center
09:43PM 29.8083 -89.6522 119° Southeast 504 580 37,000  Level Houston Center
09:44PM 29.7394 -89.5117 119° Southeast 507 583 37,000  Level Houston Center
09:45PM 29.6703 -89.3706 119° Southeast 510 587 37,000  Level Houston Center
09:46PM 29.5856 -89.1992 120° Southeast 515 593 37,000  Level Houston Center
09:47PM 29.5144 -89.0564 120° Southeast 516 594 37,000  Level Houston Center
09:48PM 29.4436 -88.9119 119° Southeast 520 598 37,000  Level Houston Center
09:49PM 29.3711 -88.7692 120° Southeast 521 600 37,000  Level Houston Center
09:50PM 29.2994 -88.6250 120° Southeast 522 601 37,000  Level Houston Center
09:51PM 29.2267 -88.4814 120° Southeast 521 600 37,000  Level Houston Center
09:52PM 29.1544 -88.3364 120° Southeast 524 603 37,000  Level Houston Center
09:53PM 29.0819 -88.1919 120° Southeast 524 603 37,000  Level Houston Center
09:54PM 28.9944 -88.0175 120° Southeast 528 608 37,000  Level Houston Center
09:55PM 28.9208 -87.8725 120° Southeast 530 610 37,000  Level Houston Center
09:56PM 28.8469 -87.7294 121° Southeast 526 605 37,000  Level Houston Center
09:57PM 28.7761 -87.5892 120° Southeast 519 597 37,000  Level Houston Center
09:58PM 28.7039 -87.4494 120° Southeast 514 592 37,000  Level Houston Center
09:59PM 28.6292 -87.3033 120° Southeast 512 589 37,000  Level Jacksonville Center
10:00PM 28.5819 -87.1569 110° East 506 582 37,000  Level Jacksonville Center
10:01PM 28.5264 -87.0058 113° Southeast 506 582 37,000  Level Jacksonville Center
10:02PM 28.4728 -86.8525 112° Southeast 514 592 37,000  Level Jacksonville Center
10:03PM 28.4169 -86.7017 113° Southeast 514 592 37,000  Level Jacksonville Center
10:04PM 28.3628 -86.5511 112° Southeast 523 602 37,000  Level Jacksonville Center
10:05PM 28.3086 -86.4031 113° Southeast 517 595 37,000  Level Jacksonville Center
10:06PM 28.2522 -86.2478 112° Southeast 512 589 37,000  Level Jacksonville Center
10:07PM 28.1975 -86.1000 113° Southeast 512 589 37,000  Level Jacksonville Center
10:08PM 28.1408 -85.9453 113° Southeast 514 592 37,000  Level Jacksonville Center
10:09PM 28.0878 -85.8025 113° Southeast 509 586 37,000  Level Jacksonville Center
10:10PM 28.0328 -85.6528 113° Southeast 509 586 37,000  Level Jacksonville Center
10:11PM 27.9733 -85.5008 114° Southeast 509 586 37,000 -540 Level Jacksonville Center
10:13PM 27.9336 -85.1539 97° East 505 581 35,300 -840 Descending Miami Center
10:14PM 27.9289 -84.9822 92° East 506 582 34,200 -1,080 Descending Miami Center
10:15PM 27.9253 -84.8269 91° East 506 582 33,200 -960 Descending Miami Center
10:16PM 27.9317 -84.6703 87° East 501 577 32,300 -1,380 Descending Miami Center
10:18PM 27.9275 -84.5153 92° East 501 577 30,400 -2,100 Descending Miami Center
10:18PM 27.9292 -84.3650 89° East 496 571 28,200 -2,160 Descending Miami Center
10:20PM 27.9286 -84.2172 90° East 478 550 26,100 -2,100 Descending Miami Center
10:20PM 27.9231 -84.0761 93° East 464 534 24,000 -2,100 Descending Miami Center
10:21PM 27.9258 -83.9378 89° East 445 512 22,000 -1,980 Descending Miami Center
10:22PM 27.9217 -83.8083 92° East 430 495 20,100 -1,860 Descending Miami Center
10:23PM 27.9194 -83.6839 91° East 410 472 18,300 -1,860 Descending Miami Center
10:24PM 27.9211 -83.5619 89° East 395 455 16,500 -1,920 Descending Miami Center
10:26PM 27.9161 -83.4442 93° East 384 442 14,500 -1,980 Descending Miami Center
10:26PM 27.9169 -83.3317 89° East 373 429 12,600 -1,800 Descending Miami Center
10:28PM 27.9136 -83.2211 92° East 361 415 10,900 -1,380 Descending Miami Center
10:29PM 27.9014 -83.1169 98° East 345 397 9,900 -480 Descending Miami Center
10:29PM 27.8803 -83.0292 105° East 316 364 10,000 -780 Climbing Miami Center
10:30PM 27.8567 -82.9433 107° East 293 337 8,400 -1,680 Descending Miami Center
10:31PM 27.8397 -82.8533 102° East 287 330 6,700 -1,560 Descending Miami Center
10:32PM 27.8350 -82.7661 93° East 282 325 5,300 -1,260 Descending Miami Center
10:33PM 27.8361 -82.6842 89° East 272 313 4,200 -900 Descending Miami Center
10:35PM 27.8500 -82.6000 79° East 199 229 3,400 -960 Descending Tampa TRACON
10:36PM 27.8667 -82.5500 69° East 167 192 2,200 -1,200 Descending Tampa TRACON
10:37PM 27.9167 -82.5500 360° North 151 174 1,100 -960 Descending Tampa TRACON
10:38PM 27.9500 -82.5500 360° North 148 170 300 -840 Descending Tampa TRACON
10:40PM 27.9667 -82.5167 19° North  Level FlightAware Approximate
10:47PM 27.9755 -82.5332 19° North  Level Estimated